createdAt,value
2018-06-17T00:00:38.020Z,72.90
2018-06-17T00:03:06.905Z,73.00
2018-06-17T00:05:35.787Z,73.00
2018-06-17T00:08:04.906Z,73.00
2018-06-17T00:10:33.742Z,73.10
2018-06-17T00:13:02.563Z,73.10
2018-06-17T00:15:31.438Z,73.20
2018-06-17T00:18:00.241Z,73.20
2018-06-17T00:20:29.128Z,73.20
2018-06-17T00:22:57.937Z,73.40
2018-06-17T00:25:26.787Z,73.50
2018-06-17T00:27:55.612Z,73.50
2018-06-17T00:30:24.448Z,73.60
2018-06-17T00:32:53.309Z,73.60
2018-06-17T00:35:22.145Z,73.60
2018-06-17T00:37:50.967Z,74.10
2018-06-17T00:40:19.834Z,73.60
2018-06-17T00:42:48.662Z,73.60
2018-06-17T00:45:17.530Z,73.70
2018-06-17T00:47:46.370Z,74.30
2018-06-17T00:50:15.350Z,73.60
2018-06-17T00:52:44.166Z,73.70
2018-06-17T00:55:13.033Z,73.70
2018-06-17T00:57:45.607Z,73.80
2018-06-17T01:00:14.460Z,73.90
2018-06-17T01:02:43.709Z,73.90
2018-06-17T01:05:12.522Z,73.90
2018-06-17T01:07:41.408Z,73.90
2018-06-17T01:10:10.383Z,73.90
2018-06-17T01:12:39.558Z,73.90
2018-06-17T01:15:08.682Z,73.90
2018-06-17T01:17:37.949Z,73.90
2018-06-17T01:20:07.662Z,74.00
2018-06-17T01:22:37.200Z,74.00
2018-06-17T01:25:06.091Z,74.00
2018-06-17T01:27:34.906Z,74.10
2018-06-17T01:30:03.764Z,74.10
2018-06-17T01:32:32.618Z,74.10
2018-06-17T01:35:01.470Z,74.00
2018-06-17T01:39:58.874Z,74.10
2018-06-17T01:42:27.698Z,74.10
2018-06-17T01:44:56.538Z,74.10
2018-06-17T01:47:25.375Z,74.10
2018-06-17T01:49:54.304Z,74.20
2018-06-17T01:52:23.117Z,74.20
2018-06-17T01:54:51.947Z,74.20
2018-06-17T01:57:20.786Z,74.30
2018-06-17T01:59:49.610Z,74.30
2018-06-17T02:02:18.434Z,74.30
2018-06-17T02:04:52.651Z,74.30
2018-06-17T02:07:26.923Z,74.30
2018-06-17T02:10:01.099Z,74.30
2018-06-17T02:12:29.954Z,74.30
2018-06-17T02:14:59.510Z,74.30
2018-06-17T02:17:28.708Z,74.40
2018-06-17T02:19:57.578Z,74.50
2018-06-17T02:22:26.455Z,74.40
2018-06-17T02:24:55.462Z,74.50
2018-06-17T02:29:52.858Z,74.50
2018-06-17T02:34:50.217Z,74.50
2018-06-17T02:37:19.046Z,74.50
2018-06-17T02:39:47.903Z,74.50
2018-06-17T02:42:16.786Z,74.60
2018-06-17T02:44:49.067Z,74.50
2018-06-17T02:47:23.251Z,74.50
2018-06-17T02:49:52.058Z,74.60
2018-06-17T02:54:30.965Z,74.50
2018-06-17T02:56:59.822Z,74.50
2018-06-17T02:59:28.662Z,74.60
2018-06-17T03:01:57.474Z,74.60
2018-06-17T03:04:26.395Z,74.60
2018-06-17T03:06:55.311Z,74.60
2018-06-17T03:09:24.182Z,74.60
2018-06-17T03:11:53.067Z,74.60
2018-06-17T03:14:21.917Z,74.60
2018-06-17T03:16:51.054Z,74.70
2018-06-17T03:19:20.190Z,74.70
2018-06-17T03:21:49.150Z,74.70
2018-06-17T03:24:22.331Z,74.70
2018-06-17T03:26:56.522Z,74.70
2018-06-17T03:29:30.634Z,74.70
2018-06-17T03:32:04.670Z,74.80
2018-06-17T03:34:33.489Z,74.80
2018-06-17T03:37:02.364Z,74.70
2018-06-17T03:39:31.189Z,74.70
2018-06-17T03:42:00.141Z,74.70
2018-06-17T03:44:28.950Z,74.80
2018-06-17T03:46:57.819Z,74.80
2018-06-17T03:49:26.653Z,74.80
2018-06-17T03:51:55.505Z,74.80
2018-06-17T03:54:24.402Z,74.70
2018-06-17T03:59:21.748Z,74.80
2018-06-17T04:01:50.571Z,74.80
2018-06-17T04:04:21.923Z,74.70
2018-06-17T04:06:50.849Z,74.80
2018-06-17T04:09:19.674Z,74.80
2018-06-17T04:11:48.573Z,74.80
2018-06-17T04:16:45.938Z,74.80
2018-06-17T04:21:43.254Z,74.80
2018-06-17T04:24:12.080Z,74.90
2018-06-17T04:26:40.894Z,74.80
2018-06-17T04:29:09.738Z,74.80
2018-06-17T04:31:38.565Z,74.70
2018-06-17T04:34:07.398Z,74.80
2018-06-17T04:36:36.210Z,74.80
2018-06-17T04:39:07.331Z,74.80
2018-06-17T04:41:36.139Z,74.90
2018-06-17T04:44:05.078Z,74.90
2018-06-17T04:46:33.929Z,74.90
2018-06-17T04:49:02.777Z,74.90
2018-06-17T04:51:31.586Z,74.80
2018-06-17T04:54:00.439Z,74.80
2018-06-17T04:56:29.310Z,74.80
2018-06-17T04:58:58.138Z,74.80
2018-06-17T05:01:27.014Z,74.70
2018-06-17T05:03:55.874Z,74.60
2018-06-17T05:06:24.724Z,74.50
2018-06-17T05:08:53.568Z,74.70
2018-06-17T05:11:22.401Z,74.70
2018-06-17T05:13:51.250Z,74.60
2018-06-17T05:16:20.094Z,74.50
2018-06-17T05:18:48.927Z,74.50
2018-06-17T05:21:17.784Z,74.60
2018-06-17T05:23:46.618Z,74.60
2018-06-17T05:26:15.512Z,74.50
2018-06-17T05:28:44.337Z,74.50
2018-06-17T05:31:13.154Z,74.50
2018-06-17T05:33:42.017Z,74.60
2018-06-17T05:36:10.854Z,74.70
2018-06-17T05:38:39.678Z,74.80
2018-06-17T05:41:08.503Z,75.40
2018-06-17T05:43:37.329Z,74.60
2018-06-17T05:46:06.238Z,74.80
2018-06-17T05:48:35.079Z,74.80
2018-06-17T05:51:03.945Z,74.70
2018-06-17T05:53:32.762Z,74.80
2018-06-17T05:56:01.588Z,74.80
2018-06-17T05:58:30.440Z,74.80
2018-06-17T06:00:59.254Z,74.80
2018-06-17T06:03:28.089Z,74.80
2018-06-17T06:25:38.671Z,74.80
2018-06-17T06:28:07.502Z,74.40
2018-06-17T06:30:36.371Z,73.80
2018-06-17T06:33:05.216Z,73.80
2018-06-17T06:35:34.041Z,73.60
2018-06-17T06:38:02.958Z,73.40
2018-06-17T06:40:31.782Z,73.40
2018-06-17T06:43:00.792Z,73.40
2018-06-17T06:45:29.914Z,73.30
2018-06-17T06:47:58.699Z,73.30
2018-06-17T06:50:27.614Z,73.30
2018-06-17T06:52:56.441Z,73.00
2018-06-17T06:55:25.329Z,73.00
2018-06-17T06:57:54.176Z,73.20
2018-06-17T07:03:11.542Z,73.40
2018-06-17T07:05:51.817Z,73.50
2018-06-17T07:08:32.072Z,73.50
2018-06-17T07:11:01.154Z,73.40
2018-06-17T07:13:30.012Z,73.50
2018-06-17T07:16:10.290Z,73.30
2018-06-17T07:18:40.384Z,73.10
2018-06-17T07:21:09.516Z,72.90
2018-06-17T07:23:38.085Z,73.00
2018-06-17T07:26:32.122Z,72.40
2018-06-17T07:29:12.119Z,71.60
2018-06-17T07:34:09.846Z,71.40
2018-06-17T07:36:39.034Z,71.20
2018-06-17T07:39:19.842Z,71.20
2018-06-17T07:41:48.445Z,71.20
2018-06-17T07:44:17.054Z,71.50
2018-06-17T07:46:45.658Z,71.80
2018-06-17T07:49:27.372Z,71.90
2018-06-17T07:52:09.339Z,72.00
2018-06-17T07:54:39.146Z,71.90
2018-06-17T07:57:08.594Z,72.70
2018-06-17T07:59:37.291Z,72.00
2018-06-17T08:02:06.406Z,72.30
2018-06-17T08:07:03.582Z,72.50
2018-06-17T08:09:32.179Z,72.70
2018-06-17T08:12:01.070Z,72.70
2018-06-17T08:14:29.654Z,72.80
2018-06-17T08:16:58.446Z,72.70
2018-06-17T08:19:28.160Z,72.90
2018-06-17T08:21:57.672Z,72.90
2018-06-17T08:26:55.006Z,72.50
2018-06-17T08:29:23.675Z,72.60
2018-06-17T08:31:52.297Z,72.70
2018-06-17T08:36:49.374Z,72.50
2018-06-17T08:39:19.253Z,72.50
2018-06-17T08:41:47.865Z,72.50
2018-06-17T08:44:17.167Z,72.50
2018-06-17T08:46:46.529Z,72.50
2018-06-17T08:49:15.526Z,72.50
2018-06-17T08:51:44.153Z,72.50
2018-06-17T08:54:12.802Z,72.40
2018-06-17T08:56:41.414Z,72.20
2018-06-17T08:59:10.030Z,72.40
2018-06-17T09:01:38.648Z,72.30
2018-06-17T09:04:07.245Z,72.30
2018-06-17T09:06:35.940Z,72.30
2018-06-17T09:09:07.818Z,72.40
2018-06-17T09:11:36.494Z,72.20
2018-06-17T09:14:05.120Z,72.40
2018-06-17T09:16:33.722Z,72.40
2018-06-17T09:19:02.348Z,72.20
2018-06-17T09:23:59.258Z,72.10
2018-06-17T09:28:56.443Z,71.50
2018-06-17T09:31:25.072Z,71.40
2018-06-17T09:33:53.928Z,71.20
2018-06-17T09:36:22.602Z,71.60
2018-06-17T09:38:51.258Z,72.20
2018-06-17T09:41:19.834Z,72.20
2018-06-17T09:43:48.450Z,71.70
2018-06-17T09:46:17.234Z,71.60
2018-06-17T09:48:45.846Z,71.60
2018-06-17T09:51:14.650Z,71.40
2018-06-17T09:53:43.606Z,71.60
2018-06-17T09:56:12.206Z,71.70
2018-06-17T09:58:41.105Z,71.20
2018-06-17T10:03:38.052Z,71.60
2018-06-17T10:08:35.079Z,71.80
2018-06-17T10:11:05.708Z,71.40
2018-06-17T10:13:35.782Z,71.40
2018-06-17T10:16:04.917Z,71.40
2018-06-17T10:18:33.765Z,71.10
2018-06-17T10:21:02.870Z,71.30
2018-06-17T10:23:31.707Z,71.40
2018-06-17T10:26:00.538Z,71.20
2018-06-17T10:28:30.270Z,71.30
2018-06-17T10:31:00.364Z,71.90
2018-06-17T10:33:29.255Z,71.80
2018-06-17T10:35:59.200Z,71.80
2018-06-17T10:38:28.121Z,71.20
2018-06-17T10:40:56.990Z,71.30
2018-06-17T10:45:57.926Z,71.20
2018-06-17T10:48:27.499Z,71.10
2018-06-17T10:50:56.333Z,72.30
2018-06-17T10:53:25.303Z,71.80
2018-06-17T10:55:54.517Z,72.10
2018-06-17T10:58:23.218Z,72.10
2018-06-17T11:00:52.116Z,72.10
2018-06-17T11:03:20.933Z,71.90
2018-06-17T11:05:49.785Z,71.60
2018-06-17T11:10:47.866Z,71.50
2018-06-17T11:13:16.741Z,71.00
2018-06-17T11:15:45.516Z,70.70
2018-06-17T11:18:14.389Z,71.10
2018-06-17T11:20:43.280Z,71.60
2018-06-17T11:23:12.143Z,71.70
2018-06-17T11:25:40.966Z,71.90
2018-06-17T11:28:09.812Z,71.40
2018-06-17T11:30:38.859Z,71.20
2018-06-17T11:33:07.691Z,71.10
2018-06-17T11:35:36.749Z,70.70
2018-06-17T11:38:05.611Z,70.20
2018-06-17T11:40:34.462Z,70.40
2018-06-17T11:43:03.285Z,70.70
2018-06-17T11:45:32.126Z,71.00
2018-06-17T11:48:00.988Z,71.60
2018-06-17T11:50:29.841Z,71.30
2018-06-17T11:52:58.691Z,71.40
2018-06-17T11:55:27.637Z,72.80
2018-06-17T11:57:56.474Z,72.30
2018-06-17T12:00:25.334Z,72.40
2018-06-17T12:02:54.222Z,73.30
2018-06-17T12:05:23.034Z,72.50
2018-06-17T12:07:51.857Z,72.50
2018-06-17T12:10:20.896Z,71.80
2018-06-17T12:12:49.774Z,71.20
2018-06-17T12:15:18.612Z,70.70
2018-06-17T12:20:16.050Z,70.50
2018-06-17T12:22:44.894Z,70.00
2018-06-17T12:25:13.707Z,70.10
2018-06-17T12:27:42.554Z,69.80
2018-06-17T12:30:11.363Z,69.80
2018-06-17T12:32:40.203Z,68.90
2018-06-17T12:35:09.028Z,69.10
2018-06-17T12:37:37.882Z,69.50
2018-06-17T12:40:06.709Z,70.00
2018-06-17T12:42:35.542Z,70.50
2018-06-17T12:45:04.551Z,70.30
2018-06-17T12:47:33.357Z,70.00
2018-06-17T12:50:02.230Z,69.90
2018-06-17T12:52:31.118Z,69.80
2018-06-17T12:54:59.957Z,70.50
2018-06-17T12:57:28.785Z,71.20
2018-06-17T12:59:57.662Z,71.50
2018-06-17T13:04:55.072Z,71.00
2018-06-17T13:07:23.874Z,70.20
2018-06-17T13:09:52.986Z,70.20
2018-06-17T13:12:21.814Z,67.80
2018-06-17T13:14:50.677Z,67.10
2018-06-17T13:17:19.614Z,67.80
2018-06-17T13:19:48.500Z,67.90
2018-06-17T13:22:17.324Z,68.30
2018-06-17T13:24:46.158Z,68.20
2018-06-17T13:27:15.018Z,68.20
2018-06-17T13:29:43.865Z,68.50
2018-06-17T13:32:12.707Z,68.60
2018-06-17T13:34:41.562Z,68.60
2018-06-17T13:37:10.402Z,68.70
2018-06-17T13:39:39.233Z,68.50
2018-06-17T13:42:08.069Z,68.70
2018-06-17T13:47:05.477Z,68.90
2018-06-17T13:49:34.293Z,69.00
2018-06-17T13:52:03.150Z,68.60
2018-06-17T13:54:32.010Z,68.80
2018-06-17T13:57:00.854Z,68.70
2018-06-17T13:59:29.750Z,68.50
2018-06-17T14:01:58.622Z,68.40
2018-06-17T14:04:27.450Z,67.90
2018-06-17T14:06:56.322Z,67.40
2018-06-17T14:09:25.142Z,67.40
2018-06-17T14:14:22.494Z,67.60
2018-06-17T14:16:51.546Z,68.10
2018-06-17T14:19:20.400Z,66.80
2018-06-17T14:21:49.225Z,67.10
2018-06-17T14:24:18.058Z,67.40
2018-06-17T14:26:46.892Z,67.20
2018-06-17T14:29:15.748Z,67.30
2018-06-17T14:31:44.622Z,67.50
2018-06-17T14:34:13.462Z,67.90
2018-06-17T14:36:42.279Z,68.10
2018-06-17T14:39:12.462Z,68.10
2018-06-17T14:41:41.406Z,68.40
2018-06-17T14:44:15.616Z,68.20
2018-06-17T14:46:49.750Z,68.40
2018-06-17T14:49:23.916Z,68.40
2018-06-17T14:51:58.110Z,68.70
2018-06-17T14:54:26.938Z,69.50
2018-06-17T14:56:55.794Z,70.50
2018-06-17T14:59:24.644Z,71.20
2018-06-17T15:01:53.522Z,72.00
2018-06-17T15:04:22.342Z,71.90
2018-06-17T15:06:51.214Z,72.30
2018-06-17T15:09:20.095Z,72.30
2018-06-17T15:11:48.879Z,72.70
2018-06-17T15:14:17.685Z,72.90
2018-06-17T15:16:46.637Z,73.40
2018-06-17T15:19:15.461Z,73.30
2018-06-17T15:24:12.909Z,73.50
2018-06-17T15:26:41.738Z,73.60
2018-06-17T15:29:10.710Z,74.20
2018-06-17T15:31:44.926Z,74.30
2018-06-17T15:34:19.157Z,74.60
2018-06-17T15:36:53.301Z,74.80
2018-06-17T15:39:27.735Z,75.00
2018-06-17T15:41:56.582Z,75.30
2018-06-17T15:44:25.414Z,75.40
2018-06-17T15:46:54.233Z,76.00
2018-06-17T15:49:23.758Z,76.10
2018-06-17T15:51:52.569Z,76.20
2018-06-17T15:54:21.391Z,76.10
2018-06-17T15:56:50.230Z,76.00
2018-06-17T15:59:19.074Z,76.00
2018-06-17T16:01:47.910Z,75.80
2018-06-17T16:04:16.789Z,76.00
2018-06-17T16:06:45.740Z,76.00
2018-06-17T16:09:14.533Z,76.10
2018-06-17T16:11:48.847Z,76.20
2018-06-17T16:14:23.206Z,76.10
2018-06-17T16:16:57.517Z,76.10
2018-06-17T16:19:31.597Z,76.10
2018-06-17T16:22:00.443Z,76.90
2018-06-17T16:24:29.342Z,76.10
2018-06-17T16:26:58.209Z,76.20
2018-06-17T16:29:27.233Z,76.40
2018-06-17T16:31:56.059Z,76.50
2018-06-17T16:34:24.878Z,76.70
2018-06-17T16:36:53.690Z,76.60
2018-06-17T16:39:22.516Z,77.00
2018-06-17T16:41:51.350Z,77.70
2018-06-17T16:44:20.214Z,78.10
2018-06-17T16:46:49.026Z,78.00
2018-06-17T16:49:17.854Z,77.80
2018-06-17T16:51:52.136Z,77.70
2018-06-17T16:54:26.165Z,78.30
2018-06-17T16:57:00.470Z,78.10
2018-06-17T16:59:34.783Z,78.70
2018-06-17T17:02:03.634Z,78.00
2018-06-17T17:04:32.455Z,78.10
2018-06-17T17:07:01.262Z,78.10
2018-06-17T17:09:30.094Z,77.90
2018-06-17T17:11:58.968Z,77.90
2018-06-17T17:16:56.322Z,77.80
2018-06-17T17:19:25.138Z,77.70
2018-06-17T17:21:54.205Z,77.60
2018-06-17T17:24:22.985Z,77.70
2018-06-17T17:26:51.815Z,77.60
2018-06-17T17:29:20.686Z,77.50
2018-06-17T17:31:55.027Z,77.40
2018-06-17T17:34:29.209Z,77.30
2018-06-17T17:37:03.538Z,77.20
2018-06-17T17:39:37.695Z,77.20
2018-06-17T17:42:06.666Z,77.20
2018-06-17T17:44:40.782Z,77.20
2018-06-17T17:47:14.975Z,77.30
2018-06-17T17:49:43.806Z,77.30
2018-06-17T17:52:12.656Z,77.30
2018-06-17T17:54:41.474Z,77.10
2018-06-17T17:57:10.297Z,77.10
2018-06-17T17:59:39.122Z,77.20
2018-06-17T18:02:07.959Z,77.30
2018-06-17T18:04:36.825Z,77.40
2018-06-17T18:07:05.644Z,77.40
2018-06-17T18:09:34.553Z,77.30
2018-06-17T18:12:03.676Z,77.30
2018-06-17T18:14:32.590Z,77.30
2018-06-17T18:17:01.643Z,77.30
2018-06-17T18:19:30.484Z,77.20
2018-06-17T18:21:59.338Z,77.20
2018-06-17T18:24:28.185Z,77.20
2018-06-17T18:27:02.325Z,77.40
2018-06-17T18:29:36.516Z,77.40
2018-06-17T18:32:10.878Z,77.40
2018-06-17T18:34:45.258Z,77.40
2018-06-17T18:37:14.086Z,77.40
2018-06-17T18:39:42.935Z,77.50
2018-06-17T18:42:11.763Z,77.40
2018-06-17T18:44:40.610Z,77.50
2018-06-17T18:47:09.411Z,77.60
2018-06-17T18:49:38.223Z,77.60
2018-06-17T18:52:07.064Z,77.70
2018-06-17T18:54:35.889Z,77.70
2018-06-17T18:57:04.723Z,78.50
2018-06-17T18:59:33.530Z,77.70
2018-06-17T19:02:02.378Z,77.70
2018-06-17T19:04:31.298Z,77.90
2018-06-17T19:07:00.266Z,77.90
2018-06-17T19:09:34.557Z,78.00
2018-06-17T19:12:08.859Z,78.20
2018-06-17T19:14:43.065Z,78.10
2018-06-17T19:17:17.421Z,78.20
2018-06-17T19:19:46.235Z,78.20
2018-06-17T19:22:15.071Z,78.30
2018-06-17T19:24:43.886Z,78.30
2018-06-17T19:27:12.713Z,78.30
2018-06-17T19:29:41.672Z,78.40
2018-06-17T19:32:10.506Z,78.40
2018-06-17T19:34:39.328Z,78.60
2018-06-17T19:37:08.148Z,78.60
2018-06-17T19:39:36.957Z,78.60
2018-06-17T19:42:12.218Z,78.70
2018-06-17T19:47:09.568Z,78.80
2018-06-17T19:49:43.880Z,78.70
2018-06-17T19:52:18.138Z,79.40
2018-06-17T19:54:52.374Z,78.90
2018-06-17T19:57:26.526Z,78.90
2018-06-17T20:00:00.714Z,79.10
2018-06-17T20:02:29.566Z,79.00
2018-06-17T20:04:58.406Z,79.00
2018-06-17T20:07:27.269Z,78.90
2018-06-17T20:09:56.105Z,79.10
2018-06-17T20:12:24.946Z,79.20
2018-06-17T20:14:53.812Z,79.20
2018-06-17T20:17:22.710Z,79.20
2018-06-17T20:19:51.565Z,79.20
2018-06-17T20:22:20.398Z,79.30
2018-06-17T20:24:49.259Z,79.30
2018-06-17T20:27:18.191Z,79.40
2018-06-17T20:29:47.051Z,79.50
2018-06-17T20:32:21.239Z,79.40
2018-06-17T20:34:55.434Z,80.10
2018-06-17T20:37:29.617Z,79.40
2018-06-17T20:40:04.652Z,79.50
2018-06-17T20:42:38.874Z,79.60
2018-06-17T20:45:07.710Z,79.60
2018-06-17T20:47:36.545Z,79.60
2018-06-17T20:50:05.382Z,79.60
2018-06-17T20:52:34.225Z,79.70
2018-06-17T20:55:03.047Z,79.70
2018-06-17T20:57:31.894Z,79.80
2018-06-17T21:00:00.718Z,79.90
2018-06-17T21:02:29.566Z,80.00
2018-06-17T21:04:58.388Z,80.00
2018-06-17T21:07:27.225Z,80.00
2018-06-17T21:09:56.061Z,80.10
2018-06-17T21:12:24.906Z,80.10
2018-06-17T21:14:53.710Z,80.20
2018-06-17T21:17:22.602Z,80.30
2018-06-17T21:22:30.924Z,80.30
2018-06-17T21:25:05.138Z,80.30
2018-06-17T21:27:40.641Z,80.30
2018-06-17T21:32:39.438Z,80.50
2018-06-17T21:35:08.920Z,80.60
2018-06-17T21:37:37.736Z,80.60
2018-06-17T21:40:06.617Z,80.80
2018-06-17T21:42:35.762Z,80.90
2018-06-17T21:45:04.590Z,80.80
2018-06-17T21:47:33.434Z,81.00
2018-06-17T21:50:02.246Z,81.00
2018-06-17T21:52:31.047Z,81.00
2018-06-17T21:54:59.873Z,81.10
2018-06-17T21:57:28.752Z,80.40
2018-06-17T21:59:57.555Z,80.20
2018-06-17T22:02:26.494Z,80.20
2018-06-17T22:04:55.319Z,80.20
2018-06-17T22:07:24.183Z,80.10
2018-06-17T22:12:32.639Z,79.90
2018-06-17T22:17:40.935Z,80.50
2018-06-17T22:20:09.746Z,79.80
2018-06-17T22:22:38.630Z,79.80
2018-06-17T22:25:07.450Z,79.80
2018-06-17T22:27:36.298Z,79.80
2018-06-17T22:30:05.115Z,79.70
2018-06-17T22:32:33.922Z,79.60
2018-06-17T22:35:02.762Z,79.60
2018-06-17T22:40:00.153Z,79.60
2018-06-17T22:42:29.332Z,79.60
2018-06-17T22:44:58.231Z,79.70
2018-06-17T22:47:32.314Z,79.60
2018-06-17T22:50:01.135Z,79.60
2018-06-17T22:52:29.938Z,79.60
2018-06-17T22:54:58.824Z,79.70
2018-06-17T22:57:32.933Z,79.60
2018-06-17T23:00:07.119Z,79.60
2018-06-17T23:02:40.986Z,79.50
2018-06-17T23:05:15.343Z,79.70
2018-06-17T23:07:49.653Z,79.60
2018-06-17T23:10:18.482Z,79.70
2018-06-17T23:12:47.404Z,79.60
2018-06-17T23:15:16.233Z,79.70
2018-06-17T23:17:45.057Z,79.70
2018-06-17T23:20:14.046Z,79.70
2018-06-17T23:22:42.857Z,79.70
2018-06-17T23:25:11.667Z,79.60
2018-06-17T23:27:40.506Z,79.70
2018-06-17T23:30:09.322Z,79.70
2018-06-17T23:32:38.202Z,79.60
2018-06-17T23:35:07.023Z,79.60
2018-06-17T23:37:35.838Z,79.60
2018-06-17T23:40:04.691Z,79.60
2018-06-17T23:42:33.611Z,79.60
2018-06-17T23:45:02.422Z,79.60
2018-06-17T23:47:36.761Z,79.50
2018-06-17T23:50:11.062Z,79.50
2018-06-17T23:52:45.130Z,79.50
2018-06-17T23:57:48.130Z,79.40
